Time,TemperatureF,DewpointF,PressureIn,WindDirection,WindDirectionDegrees,WindSpeedMPH,WindSpeedGustMPH,Humidity,HourlyPrecipIn,Conditions,Clouds,dailyrainin,SoftwareType,DateUTC
2013-03-24 00:07:00,33.1,32.5,29.60,North,-999,-999.0,-999.0,98,-99.99,,,-99.99,meteohub,2013-03-24 00:07:00,
2013-03-24 00:17:00,33.1,32.5,29.60,North,-999,-999.0,-999.0,98,-99.99,,,-99.99,meteohub,2013-03-24 00:17:00,
2013-03-24 00:22:00,32.9,32.4,29.57,North,-999,-999.0,-999.0,98,-99.99,,,-99.99,meteohub,2013-03-24 00:22:00,
2013-03-24 00:27:00,32.9,32.4,29.57,North,-999,-999.0,-999.0,98,-99.99,,,-99.99,meteohub,2013-03-24 00:27:00,
2013-03-24 00:32:00,32.9,32.4,29.57,North,-999,-999.0,-999.0,98,-99.99,,,-99.99,meteohub,2013-03-24 00:32:00,
2013-03-24 00:37:00,32.7,32.2,29.57,North,-999,-999.0,-999.0,98,-99.99,,,-99.99,meteohub,2013-03-24 00:37:00,
2013-03-24 00:42:00,32.7,32.2,29.57,North,-999,-999.0,-999.0,98,-99.99,,,-99.99,meteohub,2013-03-24 00:42:00,
2013-03-24 00:47:00,32.7,32.2,29.57,North,-999,-999.0,-999.0,98,-99.99,,,-99.99,meteohub,2013-03-24 00:47:00,
2013-03-24 00:52:00,32.7,32.2,29.60,North,-999,-999.0,-999.0,98,-99.99,,,-99.99,meteohub,2013-03-24 00:52:00,
2013-03-24 00:57:00,32.7,32.2,29.60,North,-999,-999.0,-999.0,98,-99.99,,,-99.99,meteohub,2013-03-24 00:57:00,
2013-03-24 01:02:00,32.7,32.2,29.60,North,-999,-999.0,-999.0,98,-99.99,,,-99.99,meteohub,2013-03-24 01:02:00,
2013-03-24 01:07:00,32.5,32.0,29.57,North,-999,-999.0,-999.0,98,-99.99,,,-99.99,meteohub,2013-03-24 01:07:00,
2013-03-24 01:12:00,32.5,32.0,29.57,North,-999,-999.0,-999.0,98,-99.99,,,-99.99,meteohub,2013-03-24 01:12:00,
2013-03-24 01:17:00,32.7,32.2,29.57,North,-999,-999.0,-999.0,98,-99.99,,,-99.99,meteohub,2013-03-24 01:17:00,
2013-03-24 01:22:00,32.5,32.0,29.57,North,-999,-999.0,-999.0,98,-99.99,,,-99.99,meteohub,2013-03-24 01:22:00,
2013-03-24 01:27:00,32.5,32.0,29.57,North,-999,-999.0,-999.0,98,-99.99,,,-99.99,meteohub,2013-03-24 01:27:00,
2013-03-24 01:37:00,32.5,32.0,29.57,North,-999,-999.0,-999.0,98,-99.99,,,-99.99,meteohub,2013-03-24 01:37:00,
2013-03-24 01:42:00,32.5,32.0,29.57,North,-999,-999.0,-999.0,98,-99.99,,,-99.99,meteohub,2013-03-24 01:42:00,
2013-03-24 01:47:00,32.5,32.0,29.57,North,-999,-999.0,-999.0,98,-99.99,,,-99.99,meteohub,2013-03-24 01:47:00,
2013-03-24 01:52:00,32.5,32.0,29.57,North,-999,-999.0,-999.0,98,-99.99,,,-99.99,meteohub,2013-03-24 01:52:00,
2013-03-24 01:57:00,32.5,32.0,29.57,North,-999,-999.0,-999.0,98,-99.99,,,-99.99,meteohub,2013-03-24 01:57:00,
2013-03-24 02:02:00,32.5,32.0,29.57,North,-999,-999.0,-999.0,98,-99.99,,,-99.99,meteohub,2013-03-24 02:02:00,
2013-03-24 02:12:00,32.5,32.0,29.57,North,-999,-999.0,-999.0,98,-99.99,,,-99.99,meteohub,2013-03-24 02:12:00,
2013-03-24 02:17:00,32.5,32.0,29.57,North,-999,-999.0,-999.0,98,-99.99,,,-99.99,meteohub,2013-03-24 02:17:00,
2013-03-24 02:22:00,32.5,32.0,29.57,North,-999,-999.0,-999.0,98,-99.99,,,-99.99,meteohub,2013-03-24 02:22:00,
2013-03-24 02:27:00,32.5,32.0,29.57,North,-999,-999.0,-999.0,98,-99.99,,,-99.99,meteohub,2013-03-24 02:27:00,
2013-03-24 02:37:00,32.5,32.0,29.57,North,-999,-999.0,-999.0,98,-99.99,,,-99.99,meteohub,2013-03-24 02:37:00,
2013-03-24 02:42:00,32.5,31.8,29.57,North,-999,-999.0,-999.0,97,-99.99,,,-99.99,meteohub,2013-03-24 02:42:00,
2013-03-24 02:47:00,32.5,31.8,29.57,North,-999,-999.0,-999.0,97,-99.99,,,-99.99,meteohub,2013-03-24 02:47:00,
2013-03-24 02:52:00,32.4,31.6,29.57,North,-999,-999.0,-999.0,97,-99.99,,,-99.99,meteohub,2013-03-24 02:52:00,
2013-03-24 02:57:00,32.4,31.6,29.57,North,-999,-999.0,-999.0,97,-99.99,,,-99.99,meteohub,2013-03-24 02:57:00,
2013-03-24 03:02:00,32.4,31.6,29.57,North,-999,-999.0,-999.0,97,-99.99,,,-99.99,meteohub,2013-03-24 03:02:00,
2013-03-24 03:07:00,32.4,31.3,29.57,North,-999,-999.0,-999.0,96,-99.99,,,-99.99,meteohub,2013-03-24 03:07:00,
2013-03-24 03:17:00,32.4,31.3,29.57,North,-999,-999.0,-999.0,96,-99.99,,,-99.99,meteohub,2013-03-24 03:17:00,
2013-03-24 03:22:00,32.4,31.3,29.57,North,-999,-999.0,-999.0,96,-99.99,,,-99.99,meteohub,2013-03-24 03:22:00,
2013-03-24 03:27:00,32.4,31.3,29.57,North,-999,-999.0,-999.0,96,-99.99,,,-99.99,meteohub,2013-03-24 03:27:00,
2013-03-24 03:37:00,32.2,31.1,29.57,North,-999,-999.0,-999.0,96,-99.99,,,-99.99,meteohub,2013-03-24 03:37:00,
2013-03-24 03:42:00,32.2,31.1,29.57,North,-999,-999.0,-999.0,96,-99.99,,,-99.99,meteohub,2013-03-24 03:42:00,
2013-03-24 03:47:00,32.2,31.1,29.57,North,-999,-999.0,-999.0,96,-99.99,,,-99.99,meteohub,2013-03-24 03:47:00,
2013-03-24 03:57:00,32.0,30.9,29.57,North,-999,-999.0,-999.0,96,-99.99,,,-99.99,meteohub,2013-03-24 03:57:00,
2013-03-24 04:02:00,32.0,30.9,29.57,North,-999,-999.0,-999.0,96,-99.99,,,-99.99,meteohub,2013-03-24 04:02:00,
2013-03-24 04:07:00,32.0,30.9,29.57,North,-999,-999.0,-999.0,96,-99.99,,,-99.99,meteohub,2013-03-24 04:07:00,
2013-03-24 04:12:00,32.0,30.9,29.57,North,-999,-999.0,-999.0,96,-99.99,,,-99.99,meteohub,2013-03-24 04:12:00,
2013-03-24 04:17:00,32.0,30.9,29.57,North,-999,-999.0,-999.0,96,-99.99,,,-99.99,meteohub,2013-03-24 04:17:00,
2013-03-24 04:22:00,32.0,30.9,29.57,North,-999,-999.0,-999.0,96,-99.99,,,-99.99,meteohub,2013-03-24 04:22:00,
2013-03-24 04:27:00,32.0,30.9,29.57,North,-999,-999.0,-999.0,96,-99.99,,,-99.99,meteohub,2013-03-24 04:27:00,
2013-03-24 04:32:00,32.0,30.7,29.57,North,-999,-999.0,-999.0,95,-99.99,,,-99.99,meteohub,2013-03-24 04:32:00,
2013-03-24 04:37:00,32.0,30.7,29.57,North,-999,-999.0,-999.0,95,-99.99,,,-99.99,meteohub,2013-03-24 04:37:00,
2013-03-24 04:42:00,32.0,30.7,29.57,North,-999,-999.0,-999.0,95,-99.99,,,-99.99,meteohub,2013-03-24 04:42:00,
2013-03-24 04:47:00,32.0,30.6,29.57,North,-999,-999.0,-999.0,94,-99.99,,,-99.99,meteohub,2013-03-24 04:47:00,
2013-03-24 04:52:00,32.0,30.6,29.57,North,-999,-999.0,-999.0,94,-99.99,,,-99.99,meteohub,2013-03-24 04:52:00,
2013-03-24 04:57:00,31.8,30.0,29.57,North,-999,-999.0,-999.0,93,-99.99,,,-99.99,meteohub,2013-03-24 04:57:00,
2013-03-24 05:02:00,31.8,30.0,29.57,North,-999,-999.0,-999.0,93,-99.99,,,-99.99,meteohub,2013-03-24 05:02:00,
2013-03-24 05:07:00,31.8,30.0,29.57,North,-999,-999.0,-999.0,93,-99.99,,,-99.99,meteohub,2013-03-24 05:07:00,
2013-03-24 05:12:00,31.8,29.8,29.57,North,-999,-999.0,-999.0,92,-99.99,,,-99.99,meteohub,2013-03-24 05:12:00,
2013-03-24 05:17:00,31.8,29.5,29.57,North,-999,-999.0,-999.0,91,-99.99,,,-99.99,meteohub,2013-03-24 05:17:00,
2013-03-24 05:22:00,31.8,29.5,29.60,North,-999,-999.0,-999.0,91,-99.99,,,-99.99,meteohub,2013-03-24 05:22:00,
2013-03-24 05:32:00,31.6,29.1,29.60,North,-999,-999.0,-999.0,90,-99.99,,,-99.99,meteohub,2013-03-24 05:32:00,
2013-03-24 05:37:00,31.6,29.1,29.60,North,-999,-999.0,-999.0,90,-99.99,,,-99.99,meteohub,2013-03-24 05:37:00,
2013-03-24 05:42:00,31.6,29.1,29.60,North,-999,-999.0,-999.0,90,-99.99,,,-99.99,meteohub,2013-03-24 05:42:00,
2013-03-24 05:47:00,31.6,29.1,29.60,North,-999,-999.0,-999.0,90,-99.99,,,-99.99,meteohub,2013-03-24 05:47:00,
2013-03-24 05:52:00,31.6,29.1,29.60,North,-999,-999.0,-999.0,90,-99.99,,,-99.99,meteohub,2013-03-24 05:52:00,
2013-03-24 05:57:00,31.5,28.9,29.60,North,-999,-999.0,-999.0,90,-99.99,,,-99.99,meteohub,2013-03-24 05:57:00,
2013-03-24 06:02:00,31.5,28.9,29.60,North,-999,-999.0,-999.0,90,-99.99,,,-99.99,meteohub,2013-03-24 06:02:00,
2013-03-24 06:07:00,31.5,28.9,29.60,North,-999,-999.0,-999.0,90,-99.99,,,-99.99,meteohub,2013-03-24 06:07:00,
2013-03-24 06:12:00,31.5,29.1,29.60,North,-999,-999.0,-999.0,91,-99.99,,,-99.99,meteohub,2013-03-24 06:12:00,
2013-03-24 06:17:00,31.5,29.1,29.60,North,-999,-999.0,-999.0,91,-99.99,,,-99.99,meteohub,2013-03-24 06:17:00,
2013-03-24 06:22:00,31.5,29.1,29.60,North,-999,-999.0,-999.0,91,-99.99,,,-99.99,meteohub,2013-03-24 06:22:00,
2013-03-24 06:27:00,31.5,29.1,29.60,North,-999,-999.0,-999.0,91,-99.99,,,-99.99,meteohub,2013-03-24 06:27:00,
2013-03-24 06:32:00,31.5,29.1,29.60,North,-999,-999.0,-999.0,91,-99.99,,,-99.99,meteohub,2013-03-24 06:32:00,
2013-03-24 06:37:00,31.5,29.1,29.60,North,-999,-999.0,-999.0,91,-99.99,,,-99.99,meteohub,2013-03-24 06:37:00,
2013-03-24 06:42:00,31.5,29.1,29.60,North,-999,-999.0,-999.0,91,-99.99,,,-99.99,meteohub,2013-03-24 06:42:00,
2013-03-24 06:47:00,31.5,29.1,29.60,North,-999,-999.0,-999.0,91,-99.99,,,-99.99,meteohub,2013-03-24 06:47:00,
2013-03-24 06:52:00,31.3,28.8,29.60,North,-999,-999.0,-999.0,90,-99.99,,,-99.99,meteohub,2013-03-24 06:52:00,
2013-03-24 06:57:00,31.3,28.8,29.60,North,-999,-999.0,-999.0,90,-99.99,,,-99.99,meteohub,2013-03-24 06:57:00,
2013-03-24 07:02:00,31.3,28.8,29.60,North,-999,-999.0,-999.0,90,-99.99,,,-99.99,meteohub,2013-03-24 07:02:00,
2013-03-24 07:07:00,31.3,28.8,29.60,North,-999,-999.0,-999.0,90,-99.99,,,-99.99,meteohub,2013-03-24 07:07:00,
2013-03-24 07:12:00,31.3,28.8,29.60,North,-999,-999.0,-999.0,90,-99.99,,,-99.99,meteohub,2013-03-24 07:12:00,
2013-03-24 07:17:00,31.3,28.8,29.60,North,-999,-999.0,-999.0,90,-99.99,,,-99.99,meteohub,2013-03-24 07:17:00,
2013-03-24 07:22:00,31.3,28.8,29.60,North,-999,-999.0,-999.0,90,-99.99,,,-99.99,meteohub,2013-03-24 07:22:00,
2013-03-24 07:27:00,31.3,28.8,29.60,North,-999,-999.0,-999.0,90,-99.99,,,-99.99,meteohub,2013-03-24 07:27:00,
2013-03-24 07:37:00,31.3,28.4,29.60,North,-999,-999.0,-999.0,89,-99.99,,,-99.99,meteohub,2013-03-24 07:37:00,
2013-03-24 07:42:00,31.3,28.4,29.60,North,-999,-999.0,-999.0,89,-99.99,,,-99.99,meteohub,2013-03-24 07:42:00,
2013-03-24 07:47:00,31.3,28.4,29.60,North,-999,-999.0,-999.0,89,-99.99,,,-99.99,meteohub,2013-03-24 07:47:00,
2013-03-24 07:52:00,31.3,28.4,29.60,North,-999,-999.0,-999.0,89,-99.99,,,-99.99,meteohub,2013-03-24 07:52:00,
2013-03-24 07:57:00,31.3,28.2,29.60,North,-999,-999.0,-999.0,88,-99.99,,,-99.99,meteohub,2013-03-24 07:57:00,
2013-03-24 08:02:00,31.3,28.2,29.60,North,-999,-999.0,-999.0,88,-99.99,,,-99.99,meteohub,2013-03-24 08:02:00,
2013-03-24 08:07:00,31.5,28.4,29.60,North,-999,-999.0,-999.0,88,-99.99,,,-99.99,meteohub,2013-03-24 08:07:00,
2013-03-24 08:12:00,31.6,28.2,29.60,North,-999,-999.0,-999.0,87,-99.99,,,-99.99,meteohub,2013-03-24 08:12:00,
2013-03-24 08:22:00,31.8,28.4,29.60,North,-999,-999.0,-999.0,87,-99.99,,,-99.99,meteohub,2013-03-24 08:22:00,
2013-03-24 08:27:00,32.0,28.2,29.60,North,-999,-999.0,-999.0,86,-99.99,,,-99.99,meteohub,2013-03-24 08:27:00,
2013-03-24 08:37:00,32.0,28.6,29.60,North,-999,-999.0,-999.0,87,-99.99,,,-99.99,meteohub,2013-03-24 08:37:00,
2013-03-24 08:42:00,32.0,28.6,29.60,North,-999,-999.0,-999.0,87,-99.99,,,-99.99,meteohub,2013-03-24 08:42:00,
2013-03-24 08:47:00,32.0,28.6,29.60,North,-999,-999.0,-999.0,87,-99.99,,,-99.99,meteohub,2013-03-24 08:47:00,
2013-03-24 08:52:00,32.2,28.8,29.60,North,-999,-999.0,-999.0,87,-99.99,,,-99.99,meteohub,2013-03-24 08:52:00,
2013-03-24 08:57:00,32.2,28.8,29.60,North,-999,-999.0,-999.0,87,-99.99,,,-99.99,meteohub,2013-03-24 08:57:00,
2013-03-24 09:02:00,32.0,28.6,29.60,North,-999,-999.0,-999.0,87,-99.99,,,-99.99,meteohub,2013-03-24 09:02:00,
2013-03-24 09:07:00,32.0,28.2,29.60,North,-999,-999.0,-999.0,86,-99.99,,,-99.99,meteohub,2013-03-24 09:07:00,
2013-03-24 09:12:00,32.0,28.2,29.60,North,-999,-999.0,-999.0,86,-99.99,,,-99.99,meteohub,2013-03-24 09:12:00,
2013-03-24 09:17:00,31.8,28.0,29.60,North,-999,-999.0,-999.0,86,-99.99,,,-99.99,meteohub,2013-03-24 09:17:00,
2013-03-24 09:22:00,31.8,28.4,29.60,North,-999,-999.0,-999.0,87,-99.99,,,-99.99,meteohub,2013-03-24 09:22:00,
2013-03-24 09:27:00,31.6,28.2,29.60,North,-999,-999.0,-999.0,87,-99.99,,,-99.99,meteohub,2013-03-24 09:27:00,
2013-03-24 09:32:00,31.6,28.2,29.60,North,-999,-999.0,-999.0,87,-99.99,,,-99.99,meteohub,2013-03-24 09:32:00,
2013-03-24 09:42:00,31.5,28.4,29.63,North,-999,-999.0,-999.0,88,-99.99,,,-99.99,meteohub,2013-03-24 09:42:00,
2013-03-24 09:47:00,31.3,28.2,29.63,North,-999,-999.0,-999.0,88,-99.99,,,-99.99,meteohub,2013-03-24 09:47:00,
2013-03-24 09:57:00,31.3,28.2,29.60,North,-999,-999.0,-999.0,88,-99.99,,,-99.99,meteohub,2013-03-24 09:57:00,
2013-03-24 10:02:00,31.3,28.2,29.60,North,-999,-999.0,-999.0,88,-99.99,,,-99.99,meteohub,2013-03-24 10:02:00,
2013-03-24 10:07:00,31.3,28.2,29.63,North,-999,-999.0,-999.0,88,-99.99,,,-99.99,meteohub,2013-03-24 10:07:00,
2013-03-24 10:12:00,31.3,27.9,29.63,North,-999,-999.0,-999.0,87,-99.99,,,-99.99,meteohub,2013-03-24 10:12:00,
2013-03-24 10:22:00,31.1,27.7,29.63,North,-999,-999.0,-999.0,87,-99.99,,,-99.99,meteohub,2013-03-24 10:22:00,
2013-03-24 10:27:00,31.1,27.7,29.63,North,-999,-999.0,-999.0,87,-99.99,,,-99.99,meteohub,2013-03-24 10:27:00,
2013-03-24 10:37:00,31.1,27.7,29.60,North,-999,-999.0,-999.0,87,-99.99,,,-99.99,meteohub,2013-03-24 10:37:00,
2013-03-24 10:42:00,31.3,27.9,29.60,North,-999,-999.0,-999.0,87,-99.99,,,-99.99,meteohub,2013-03-24 10:42:00,
2013-03-24 10:47:00,31.1,27.7,29.60,North,-999,-999.0,-999.0,87,-99.99,,,-99.99,meteohub,2013-03-24 10:47:00,
2013-03-24 10:52:00,31.3,27.9,29.63,North,-999,-999.0,-999.0,87,-99.99,,,-99.99,meteohub,2013-03-24 10:52:00,
2013-03-24 11:02:00,31.3,27.9,29.63,North,-999,-999.0,-999.0,87,-99.99,,,-99.99,meteohub,2013-03-24 11:02:00,
2013-03-24 11:07:00,31.3,27.7,29.63,North,-999,-999.0,-999.0,86,-99.99,,,-99.99,meteohub,2013-03-24 11:07:00,
2013-03-24 11:12:00,31.3,27.7,29.63,North,-999,-999.0,-999.0,86,-99.99,,,-99.99,meteohub,2013-03-24 11:12:00,
2013-03-24 11:22:00,31.1,27.7,29.63,North,-999,-999.0,-999.0,87,-99.99,,,-99.99,meteohub,2013-03-24 11:22:00,
2013-03-24 11:27:00,31.3,27.9,29.63,North,-999,-999.0,-999.0,87,-99.99,,,-99.99,meteohub,2013-03-24 11:27:00,
2013-03-24 11:32:00,31.3,27.9,29.63,North,-999,-999.0,-999.0,87,-99.99,,,-99.99,meteohub,2013-03-24 11:32:00,
2013-03-24 11:42:00,31.3,27.7,29.63,North,-999,-999.0,-999.0,86,-99.99,,,-99.99,meteohub,2013-03-24 11:42:00,
2013-03-24 11:47:00,31.3,27.9,29.63,North,-999,-999.0,-999.0,87,-99.99,,,-99.99,meteohub,2013-03-24 11:47:00,
2013-03-24 11:57:00,31.1,27.5,29.63,North,-999,-999.0,-999.0,86,-99.99,,,-99.99,meteohub,2013-03-24 11:57:00,
2013-03-24 12:02:00,31.3,27.9,29.63,North,-999,-999.0,-999.0,87,-99.99,,,-99.99,meteohub,2013-03-24 12:02:00,
2013-03-24 12:07:00,31.3,27.9,29.63,North,-999,-999.0,-999.0,87,-99.99,,,-99.99,meteohub,2013-03-24 12:07:00,
2013-03-24 12:12:00,31.1,27.7,29.63,North,-999,-999.0,-999.0,87,-99.99,,,-99.99,meteohub,2013-03-24 12:12:00,
2013-03-24 12:17:00,31.1,27.5,29.63,North,-999,-999.0,-999.0,86,-99.99,,,-99.99,meteohub,2013-03-24 12:17:00,
2013-03-24 12:22:00,31.1,27.5,29.63,North,-999,-999.0,-999.0,86,-99.99,,,-99.99,meteohub,2013-03-24 12:22:00,
2013-03-24 12:27:00,31.3,27.9,29.63,North,-999,-999.0,-999.0,87,-99.99,,,-99.99,meteohub,2013-03-24 12:27:00,
2013-03-24 12:37:00,31.3,27.3,29.63,North,-999,-999.0,-999.0,85,-99.99,,,-99.99,meteohub,2013-03-24 12:37:00,
2013-03-24 12:47:00,31.3,27.0,29.63,North,-999,-999.0,-999.0,84,-99.99,,,-99.99,meteohub,2013-03-24 12:47:00,
2013-03-24 12:57:00,31.1,26.8,29.63,North,-999,-999.0,-999.0,84,-99.99,,,-99.99,meteohub,2013-03-24 12:57:00,
2013-03-24 13:02:00,31.3,27.0,29.63,North,-999,-999.0,-999.0,84,-99.99,,,-99.99,meteohub,2013-03-24 13:02:00,
2013-03-24 13:07:00,31.3,27.0,29.63,North,-999,-999.0,-999.0,84,-99.99,,,-99.99,meteohub,2013-03-24 13:07:00,
2013-03-24 13:12:00,31.3,26.8,29.63,North,-999,-999.0,-999.0,83,-99.99,,,-99.99,meteohub,2013-03-24 13:12:00,
2013-03-24 13:22:00,31.3,26.4,29.63,North,-999,-999.0,-999.0,82,-99.99,,,-99.99,meteohub,2013-03-24 13:22:00,
2013-03-24 13:32:00,31.5,26.2,29.63,North,-999,-999.0,-999.0,81,-99.99,,,-99.99,meteohub,2013-03-24 13:32:00,
2013-03-24 13:42:00,32.0,27.1,29.63,North,-999,-999.0,-999.0,82,-99.99,,,-99.99,meteohub,2013-03-24 13:42:00,
2013-03-24 13:47:00,31.8,26.4,29.63,North,-999,-999.0,-999.0,80,-99.99,,,-99.99,meteohub,2013-03-24 13:47:00,
2013-03-24 13:52:00,32.2,26.8,29.63,North,-999,-999.0,-999.0,80,-99.99,,,-99.99,meteohub,2013-03-24 13:52:00,
2013-03-24 13:57:00,32.4,27.0,29.63,North,-999,-999.0,-999.0,80,-99.99,,,-99.99,meteohub,2013-03-24 13:57:00,
2013-03-24 14:02:00,32.2,26.4,29.63,North,-999,-999.0,-999.0,79,-99.99,,,-99.99,meteohub,2013-03-24 14:02:00,
2013-03-24 14:07:00,32.0,26.2,29.63,North,-999,-999.0,-999.0,79,-99.99,,,-99.99,meteohub,2013-03-24 14:07:00,
2013-03-24 14:17:00,31.8,26.4,29.63,North,-999,-999.0,-999.0,80,-99.99,,,-99.99,meteohub,2013-03-24 14:17:00,
2013-03-24 14:22:00,31.8,26.6,29.63,North,-999,-999.0,-999.0,81,-99.99,,,-99.99,meteohub,2013-03-24 14:22:00,
2013-03-24 14:27:00,31.8,27.0,29.63,North,-999,-999.0,-999.0,82,-99.99,,,-99.99,meteohub,2013-03-24 14:27:00,
2013-03-24 14:32:00,31.6,26.4,29.63,North,-999,-999.0,-999.0,81,-99.99,,,-99.99,meteohub,2013-03-24 14:32:00,
2013-03-24 14:42:00,31.3,26.1,29.63,North,-999,-999.0,-999.0,81,-99.99,,,-99.99,meteohub,2013-03-24 14:42:00,
2013-03-24 14:47:00,31.3,26.1,29.63,North,-999,-999.0,-999.0,81,-99.99,,,-99.99,meteohub,2013-03-24 14:47:00,
2013-03-24 14:52:00,31.3,25.9,29.63,North,-999,-999.0,-999.0,80,-99.99,,,-99.99,meteohub,2013-03-24 14:52:00,
2013-03-24 15:02:00,31.3,25.2,29.63,North,-999,-999.0,-999.0,78,-99.99,,,-99.99,meteohub,2013-03-24 15:02:00,
2013-03-24 15:07:00,31.3,25.2,29.63,North,-999,-999.0,-999.0,78,-99.99,,,-99.99,meteohub,2013-03-24 15:07:00,
2013-03-24 15:12:00,31.3,25.2,29.63,North,-999,-999.0,-999.0,78,-99.99,,,-99.99,meteohub,2013-03-24 15:12:00,
2013-03-24 15:17:00,31.5,25.3,29.63,North,-999,-999.0,-999.0,78,-99.99,,,-99.99,meteohub,2013-03-24 15:17:00,
2013-03-24 15:27:00,31.6,25.9,29.63,North,-999,-999.0,-999.0,79,-99.99,,,-99.99,meteohub,2013-03-24 15:27:00,
2013-03-24 15:37:00,31.8,25.7,29.63,North,-999,-999.0,-999.0,78,-99.99,,,-99.99,meteohub,2013-03-24 15:37:00,
2013-03-24 15:42:00,32.0,25.7,29.63,North,-999,-999.0,-999.0,77,-99.99,,,-99.99,meteohub,2013-03-24 15:42:00,
2013-03-24 15:47:00,32.0,25.3,29.63,North,-999,-999.0,-999.0,76,-99.99,,,-99.99,meteohub,2013-03-24 15:47:00,
2013-03-24 15:57:00,32.2,25.5,29.63,North,-999,-999.0,-999.0,76,-99.99,,,-99.99,meteohub,2013-03-24 15:57:00,
2013-03-24 16:02:00,32.2,25.2,29.63,North,-999,-999.0,-999.0,75,-99.99,,,-99.99,meteohub,2013-03-24 16:02:00,
2013-03-24 16:12:00,32.2,25.5,29.63,North,-999,-999.0,-999.0,76,-99.99,,,-99.99,meteohub,2013-03-24 16:12:00,
2013-03-24 16:17:00,32.2,25.5,29.63,North,-999,-999.0,-999.0,76,-99.99,,,-99.99,meteohub,2013-03-24 16:17:00,
2013-03-24 16:22:00,32.2,25.5,29.63,North,-999,-999.0,-999.0,76,-99.99,,,-99.99,meteohub,2013-03-24 16:22:00,
2013-03-24 16:32:00,32.2,24.8,29.63,North,-999,-999.0,-999.0,74,-99.99,,,-99.99,meteohub,2013-03-24 16:32:00,
2013-03-24 16:37:00,32.2,24.8,29.63,North,-999,-999.0,-999.0,74,-99.99,,,-99.99,meteohub,2013-03-24 16:37:00,
2013-03-24 16:42:00,32.2,24.8,29.63,North,-999,-999.0,-999.0,74,-99.99,,,-99.99,meteohub,2013-03-24 16:42:00,
2013-03-24 16:52:00,32.2,24.8,29.63,North,-999,-999.0,-999.0,74,-99.99,,,-99.99,meteohub,2013-03-24 16:52:00,
2013-03-24 16:57:00,32.2,24.8,29.63,North,-999,-999.0,-999.0,74,-99.99,,,-99.99,meteohub,2013-03-24 16:57:00,
2013-03-24 17:07:00,32.4,24.6,29.63,North,-999,-999.0,-999.0,73,-99.99,,,-99.99,meteohub,2013-03-24 17:07:00,
2013-03-24 17:17:00,32.2,24.3,29.63,North,-999,-999.0,-999.0,72,-99.99,,,-99.99,meteohub,2013-03-24 17:17:00,
2013-03-24 17:22:00,32.4,24.4,29.63,North,-999,-999.0,-999.0,72,-99.99,,,-99.99,meteohub,2013-03-24 17:22:00,
2013-03-24 17:27:00,32.4,24.4,29.63,North,-999,-999.0,-999.0,72,-99.99,,,-99.99,meteohub,2013-03-24 17:27:00,
2013-03-24 17:32:00,32.4,24.1,29.63,North,-999,-999.0,-999.0,71,-99.99,,,-99.99,meteohub,2013-03-24 17:32:00,
2013-03-24 17:37:00,32.4,24.1,29.63,North,-999,-999.0,-999.0,71,-99.99,,,-99.99,meteohub,2013-03-24 17:37:00,
2013-03-24 17:42:00,32.4,24.1,29.63,North,-999,-999.0,-999.0,71,-99.99,,,-99.99,meteohub,2013-03-24 17:42:00,
2013-03-24 17:47:00,32.4,23.4,29.63,North,-999,-999.0,-999.0,69,-99.99,,,-99.99,meteohub,2013-03-24 17:47:00,
2013-03-24 17:57:00,32.4,23.0,29.63,North,-999,-999.0,-999.0,68,-99.99,,,-99.99,meteohub,2013-03-24 17:57:00,
2013-03-24 18:02:00,32.4,22.6,29.63,North,-999,-999.0,-999.0,67,-99.99,,,-99.99,meteohub,2013-03-24 18:02:00,
2013-03-24 18:12:00,32.5,22.5,29.63,North,-999,-999.0,-999.0,66,-99.99,,,-99.99,meteohub,2013-03-24 18:12:00,
2013-03-24 18:22:00,32.5,21.0,29.63,North,-999,-999.0,-999.0,62,-99.99,,,-99.99,meteohub,2013-03-24 18:22:00,
2013-03-24 18:32:00,32.5,21.0,29.63,North,-999,-999.0,-999.0,62,-99.99,,,-99.99,meteohub,2013-03-24 18:32:00,
2013-03-24 18:37:00,32.5,21.4,29.66,North,-999,-999.0,-999.0,63,-99.99,,,-99.99,meteohub,2013-03-24 18:37:00,
2013-03-24 18:47:00,32.5,20.7,29.66,North,-999,-999.0,-999.0,61,-99.99,,,-99.99,meteohub,2013-03-24 18:47:00,
2013-03-24 18:57:00,32.5,20.7,29.63,North,-999,-999.0,-999.0,61,-99.99,,,-99.99,meteohub,2013-03-24 18:57:00,
2013-03-24 19:02:00,32.5,20.7,29.63,North,-999,-999.0,-999.0,61,-99.99,,,-99.99,meteohub,2013-03-24 19:02:00,
2013-03-24 19:07:00,32.5,20.3,29.66,North,-999,-999.0,-999.0,60,-99.99,,,-99.99,meteohub,2013-03-24 19:07:00,
2013-03-24 19:17:00,32.5,20.3,29.66,North,-999,-999.0,-999.0,60,-99.99,,,-99.99,meteohub,2013-03-24 19:17:00,
2013-03-24 19:27:00,32.5,20.3,29.66,North,-999,-999.0,-999.0,60,-99.99,,,-99.99,meteohub,2013-03-24 19:27:00,
2013-03-24 19:32:00,32.5,19.8,29.66,North,-999,-999.0,-999.0,59,-99.99,,,-99.99,meteohub,2013-03-24 19:32:00,
2013-03-24 19:37:00,32.5,19.8,29.66,North,-999,-999.0,-999.0,59,-99.99,,,-99.99,meteohub,2013-03-24 19:37:00,
2013-03-24 19:42:00,32.5,20.3,29.66,North,-999,-999.0,-999.0,60,-99.99,,,-99.99,meteohub,2013-03-24 19:42:00,
2013-03-24 19:47:00,32.5,20.3,29.66,North,-999,-999.0,-999.0,60,-99.99,,,-99.99,meteohub,2013-03-24 19:47:00,
2013-03-24 19:52:00,32.5,20.3,29.66,North,-999,-999.0,-999.0,60,-99.99,,,-99.99,meteohub,2013-03-24 19:52:00,
2013-03-24 19:57:00,32.5,19.8,29.66,North,-999,-999.0,-999.0,59,-99.99,,,-99.99,meteohub,2013-03-24 19:57:00,
2013-03-24 20:07:00,32.5,19.8,29.66,North,-999,-999.0,-999.0,59,-99.99,,,-99.99,meteohub,2013-03-24 20:07:00,
2013-03-24 20:12:00,32.7,20.5,29.66,North,-999,-999.0,-999.0,60,-99.99,,,-99.99,meteohub,2013-03-24 20:12:00,
2013-03-24 20:17:00,32.7,19.9,29.66,North,-999,-999.0,-999.0,59,-99.99,,,-99.99,meteohub,2013-03-24 20:17:00,
2013-03-24 20:22:00,32.7,19.9,29.66,North,-999,-999.0,-999.0,59,-99.99,,,-99.99,meteohub,2013-03-24 20:22:00,
2013-03-24 20:27:00,32.7,19.6,29.66,North,-999,-999.0,-999.0,58,-99.99,,,-99.99,meteohub,2013-03-24 20:27:00,
2013-03-24 20:32:00,32.7,19.9,29.66,North,-999,-999.0,-999.0,59,-99.99,,,-99.99,meteohub,2013-03-24 20:32:00,
2013-03-24 20:37:00,32.7,19.9,29.66,North,-999,-999.0,-999.0,59,-99.99,,,-99.99,meteohub,2013-03-24 20:37:00,
2013-03-24 20:42:00,32.7,19.9,29.66,North,-999,-999.0,-999.0,59,-99.99,,,-99.99,meteohub,2013-03-24 20:42:00,
2013-03-24 20:47:00,32.7,19.9,29.66,North,-999,-999.0,-999.0,59,-99.99,,,-99.99,meteohub,2013-03-24 20:47:00,
2013-03-24 20:52:00,32.7,19.6,29.66,North,-999,-999.0,-999.0,58,-99.99,,,-99.99,meteohub,2013-03-24 20:52:00,
2013-03-24 21:02:00,32.9,20.1,29.66,North,-999,-999.0,-999.0,59,-99.99,,,-99.99,meteohub,2013-03-24 21:02:00,
2013-03-24 21:07:00,32.9,19.8,29.66,North,-999,-999.0,-999.0,58,-99.99,,,-99.99,meteohub,2013-03-24 21:07:00,
2013-03-24 21:12:00,32.9,20.1,29.66,North,-999,-999.0,-999.0,59,-99.99,,,-99.99,meteohub,2013-03-24 21:12:00,
2013-03-24 21:17:00,32.9,20.1,29.66,North,-999,-999.0,-999.0,59,-99.99,,,-99.99,meteohub,2013-03-24 21:17:00,
2013-03-24 21:22:00,32.9,19.8,29.66,North,-999,-999.0,-999.0,58,-99.99,,,-99.99,meteohub,2013-03-24 21:22:00,
2013-03-24 21:27:00,33.1,19.9,29.66,North,-999,-999.0,-999.0,58,-99.99,,,-99.99,meteohub,2013-03-24 21:27:00,
2013-03-24 21:32:00,33.1,19.6,29.66,North,-999,-999.0,-999.0,57,-99.99,,,-99.99,meteohub,2013-03-24 21:32:00,
2013-03-24 21:37:00,33.1,19.9,29.66,North,-999,-999.0,-999.0,58,-99.99,,,-99.99,meteohub,2013-03-24 21:37:00,
2013-03-24 21:42:00,33.1,19.6,29.66,North,-999,-999.0,-999.0,57,-99.99,,,-99.99,meteohub,2013-03-24 21:42:00,
2013-03-24 21:47:00,33.1,19.6,29.66,North,-999,-999.0,-999.0,57,-99.99,,,-99.99,meteohub,2013-03-24 21:47:00,
2013-03-24 21:52:00,33.1,19.6,29.66,North,-999,-999.0,-999.0,57,-99.99,,,-99.99,meteohub,2013-03-24 21:52:00,
2013-03-24 21:57:00,33.1,19.6,29.66,North,-999,-999.0,-999.0,57,-99.99,,,-99.99,meteohub,2013-03-24 21:57:00,
2013-03-24 22:07:00,33.1,19.2,29.66,North,-999,-999.0,-999.0,56,-99.99,,,-99.99,meteohub,2013-03-24 22:07:00,
2013-03-24 22:12:00,33.3,18.9,29.66,North,-999,-999.0,-999.0,55,-99.99,,,-99.99,meteohub,2013-03-24 22:12:00,
2013-03-24 22:17:00,33.3,19.2,29.66,North,-999,-999.0,-999.0,56,-99.99,,,-99.99,meteohub,2013-03-24 22:17:00,
2013-03-24 22:22:00,33.3,19.2,29.66,North,-999,-999.0,-999.0,56,-99.99,,,-99.99,meteohub,2013-03-24 22:22:00,
2013-03-24 22:27:00,33.3,18.9,29.66,North,-999,-999.0,-999.0,55,-99.99,,,-99.99,meteohub,2013-03-24 22:27:00,
2013-03-24 22:32:00,33.3,19.2,29.66,North,-999,-999.0,-999.0,56,-99.99,,,-99.99,meteohub,2013-03-24 22:32:00,
2013-03-24 22:37:00,33.3,19.2,29.66,North,-999,-999.0,-999.0,56,-99.99,,,-99.99,meteohub,2013-03-24 22:37:00,
2013-03-24 22:42:00,33.3,19.2,29.66,North,-999,-999.0,-999.0,56,-99.99,,,-99.99,meteohub,2013-03-24 22:42:00,
2013-03-24 22:52:00,33.3,19.2,29.66,North,-999,-999.0,-999.0,56,-99.99,,,-99.99,meteohub,2013-03-24 22:52:00,
2013-03-24 22:57:00,33.3,19.2,29.66,North,-999,-999.0,-999.0,56,-99.99,,,-99.99,meteohub,2013-03-24 22:57:00,
2013-03-24 23:02:00,33.3,19.2,29.66,North,-999,-999.0,-999.0,56,-99.99,,,-99.99,meteohub,2013-03-24 23:02:00,
2013-03-24 23:07:00,33.3,19.2,29.66,North,-999,-999.0,-999.0,56,-99.99,,,-99.99,meteohub,2013-03-24 23:07:00,
2013-03-24 23:12:00,33.3,18.9,29.66,North,-999,-999.0,-999.0,55,-99.99,,,-99.99,meteohub,2013-03-24 23:12:00,
2013-03-24 23:17:00,33.4,19.0,29.66,North,-999,-999.0,-999.0,55,-99.99,,,-99.99,meteohub,2013-03-24 23:17:00,
2013-03-24 23:22:00,33.4,19.4,29.66,North,-999,-999.0,-999.0,56,-99.99,,,-99.99,meteohub,2013-03-24 23:22:00,
2013-03-24 23:32:00,33.4,19.0,29.66,North,-999,-999.0,-999.0,55,-99.99,,,-99.99,meteohub,2013-03-24 23:32:00,
2013-03-24 23:37:00,33.4,19.0,29.66,North,-999,-999.0,-999.0,55,-99.99,,,-99.99,meteohub,2013-03-24 23:37:00,
2013-03-24 23:42:00,33.4,19.0,29.66,North,-999,-999.0,-999.0,55,-99.99,,,-99.99,meteohub,2013-03-24 23:42:00,
2013-03-24 23:47:00,33.4,18.7,29.66,North,-999,-999.0,-999.0,54,-99.99,,,-99.99,meteohub,2013-03-24 23:47:00,
2013-03-24 23:52:00,33.4,18.7,29.66,North,-999,-999.0,-999.0,54,-99.99,,,-99.99,meteohub,2013-03-24 23:52:00,
2013-03-24 23:57:00,33.4,18.7,29.66,North,-999,-999.0,-999.0,54,-99.99,,,-99.99,meteohub,2013-03-24 23:57:00,